Time;durP1;ratioP1;P1;durP2;ratioP2;P2;SDS_P1;SDS_P2;PMS_P1;PMS_P2;Temp;Humidity;BMP_temperature;BMP_pressure;BME280_temperature;BME280_humidity;BME280_pressure;Samples;Min_cycle;Max_cycle;Signal;HPM_P1;HPM_P2
2022/11/18 00:00:34;;;;;;;16.10;14.40;;;;;21.70;98517.00;;;;2070283;28;21249;-50
2022/11/18 00:01:34;;;;;;;17.67;15.53;;;;;21.70;98521.00;;;;2070365;28;20608;-47
2022/11/18 00:02:35;;;;;;;16.60;14.80;;;;;21.70;98517.00;;;;2069550;28;20579;-50
2022/11/18 00:03:36;;;;;;;16.17;14.57;;;;;21.70;98521.00;;;;2070207;28;20825;-51
2022/11/18 00:04:36;;;;;;;17.87;15.97;;;;;21.70;98526.00;;;;2070218;28;20549;-50
2022/11/18 00:05:36;;;;;;;16.23;14.53;;;;;21.70;98527.00;;;;2069353;28;21016;-48
2022/11/18 00:06:37;;;;;;;18.07;15.17;;;;;21.70;98530.00;;;;2069836;28;20675;-48
2022/11/18 00:07:37;;;;;;;17.07;15.27;;;;;21.70;98534.00;;;;2069776;28;20672;-48
2022/11/18 00:08:37;;;;;;;16.00;14.30;;;;;21.70;98524.00;;;;2069747;28;20206;-51
2022/11/18 00:09:38;;;;;;;15.90;14.30;;;;;21.70;98527.00;;;;2069956;28;20246;-49
2022/11/18 00:10:39;;;;;;;17.10;15.30;;;;;21.70;98537.00;;;;2071849;28;20299;-48
2022/11/18 00:14:19;;;;;;;15.55;13.88;;;;;21.70;98537.00;;;;2076886;28;20225;-50
2022/11/18 00:15:20;;;;;;;14.10;12.60;;;;;21.70;98545.00;;;;2077363;28;20224;-50
2022/11/18 00:16:20;;;;;;;15.10;13.23;;;;;21.70;98548.00;;;;2077040;28;20237;-49
2022/11/18 00:17:20;;;;;;;13.60;12.20;;;;;21.70;98545.00;;;;2078870;28;20209;-50
2022/11/18 00:18:20;;;;;;;14.83;13.27;;;;;21.60;98544.00;;;;2078926;28;20213;-49
2022/11/18 00:19:23;;;;;;;14.10;12.60;;;;;21.70;98542.00;;;;2078650;28;20317;-49
2022/11/18 00:20:23;;;;;;;13.70;12.07;;;;;21.70;98546.00;;;;2078317;28;20703;-47
2022/11/18 00:21:24;;;;;;;14.77;12.67;;;;;21.70;98541.00;;;;2078108;28;20205;-47
2022/11/18 00:22:24;;;;;;;14.80;13.20;;;;;21.70;98538.00;;;;2077103;28;20240;-51
2022/11/18 00:23:24;;;;;;;12.90;11.50;;;;;21.60;98544.00;;;;2078682;28;20217;-49
2022/11/18 00:24:25;;;;;;;14.30;12.80;;;;;21.60;98541.00;;;;2078264;28;20222;-50
2022/11/18 00:25:25;;;;;;;13.50;12.00;;;;;21.60;98542.00;;;;2078552;28;20213;-49
2022/11/18 00:26:26;;;;;;;15.10;11.63;;;;;21.60;98539.00;;;;2077667;28;20225;-50
2022/11/18 00:27:29;;;;;;;12.97;11.67;;;;;21.60;98539.00;;;;2078100;28;20217;-50
2022/11/18 00:28:30;;;;;;;13.68;12.27;;;;;21.60;98550.00;;;;2078182;28;20213;-49
2022/11/18 00:29:31;;;;;;;13.70;11.93;;;;;21.60;98547.00;;;;2078616;28;20678;-51
2022/11/18 00:30:31;;;;;;;12.10;10.87;;;;;21.60;98547.00;;;;2078593;28;20225;-49
2022/11/18 00:31:31;;;;;;;13.80;12.40;;;;;21.60;98542.00;;;;2078626;28;20214;-49
2022/11/18 00:32:32;;;;;;;13.63;11.80;;;;;21.60;98543.00;;;;2075742;28;20244;-49
2022/11/18 00:33:32;;;;;;;11.30;10.13;;;;;21.60;98546.00;;;;2074175;28;20320;-52
2022/11/18 00:34:32;;;;;;;12.00;10.80;;;;;21.60;98545.00;;;;2070003;28;20589;-51
2022/11/18 00:35:33;;;;;;;11.10;10.00;;;;;21.60;98544.00;;;;2070120;28;20237;-51
2022/11/18 00:36:33;;;;;;;11.80;10.50;;;;;21.60;98542.00;;;;2070378;28;20216;-50
2022/11/18 00:37:33;;;;;;;11.27;10.03;;;;;21.60;98550.00;;;;2070545;28;20942;-48
2022/11/18 00:38:34;;;;;;;13.00;11.70;;;;;21.60;98551.00;;;;2070601;28;20276;-49
2022/11/18 00:39:34;;;;;;;12.17;10.87;;;;;21.60;98559.00;;;;2072086;28;20288;-48
2022/11/18 00:40:34;;;;;;;11.10;10.00;;;;;21.50;98552.00;;;;2077768;28;20812;-52
2022/11/18 00:42:55;;;;;;;12.32;10.27;;;;;21.60;98556.00;;;;2077915;28;20589;-49
2022/11/18 00:43:55;;;;;;;11.57;10.38;;;;;21.60;98552.00;;;;2078568;28;20228;-49
2022/11/18 00:44:55;;;;;;;10.70;9.60;;;;;21.50;98556.00;;;;2078597;28;20227;-51
2022/11/18 00:45:56;;;;;;;10.70;9.60;;;;;21.60;98558.00;;;;2078590;28;20225;-49
2022/11/18 00:46:56;;;;;;;10.07;9.07;;;;;21.60;98559.00;;;;2077833;28;20217;-50
2022/11/18 00:47:56;;;;;;;11.23;10.00;;;;;21.50;98563.00;;;;2078786;28;20252;-49
2022/11/18 00:48:57;;;;;;;9.80;8.53;;;;;21.50;98565.00;;;;2078319;28;20209;-48
2022/11/18 00:49:57;;;;;;;9.93;8.93;;;;;21.60;98568.00;;;;2078514;28;20213;-52
2022/11/18 00:51:04;;;;;;;9.80;8.80;;;;;21.50;98559.00;;;;2078480;28;20209;-47
2022/11/18 00:52:05;;;;;;;10.88;9.77;;;;;21.50;98562.00;;;;2077476;28;20431;-51
2022/11/18 00:53:05;;;;;;;10.77;9.17;;;;;21.50;98551.00;;;;2078293;28;20356;-50
2022/11/18 00:54:05;;;;;;;9.83;8.60;;;;;21.50;98558.00;;;;2078252;28;20220;-48
2022/11/18 00:55:06;;;;;;;10.40;9.30;;;;;21.50;98548.00;;;;2075313;28;20217;-50
2022/11/18 00:56:07;;;;;;;9.00;8.10;;;;;21.50;98559.00;;;;2070321;28;20276;-50
2022/11/18 00:57:07;;;;;;;8.97;8.07;;;;;21.50;98553.00;;;;2070336;28;20223;-49
2022/11/18 00:58:07;;;;;;;9.50;8.20;;;;;21.50;98555.00;;;;2069173;28;20299;-48
2022/11/18 00:59:08;;;;;;;8.70;6.93;;;;;21.50;98565.00;;;;2070807;28;20214;-47
2022/11/18 01:00:08;;;;;;;9.30;8.27;;;;;21.50;98559.00;;;;2070445;28;20234;-47
2022/11/18 01:01:09;;;;;;;9.03;7.80;;;;;21.50;98556.00;;;;2069968;28;20241;-49
2022/11/18 01:02:09;;;;;;;8.37;7.50;;;;;21.50;98557.00;;;;2069766;28;20457;-47
2022/11/18 01:03:10;;;;;;;9.07;8.17;;;;;21.50;98563.00;;;;2070322;28;20230;-48
2022/11/18 01:04:10;;;;;;;8.80;7.70;;;;;21.50;98561.00;;;;2070394;28;20229;-47
2022/11/18 01:05:10;;;;;;;8.10;7.30;;;;;21.50;98563.00;;;;2070571;28;20209;-51
2022/11/18 01:06:11;;;;;;;8.40;7.30;;;;;21.50;98564.00;;;;2070332;28;20249;-50
2022/11/18 01:07:11;;;;;;;8.73;7.70;;;;;21.50;98563.00;;;;2070510;28;20207;-48
2022/11/18 01:08:11;;;;;;;8.33;7.33;;;;;21.50;98559.00;;;;2070324;28;20210;-48
2022/11/18 01:09:12;;;;;;;8.00;7.20;;;;;21.50;98566.00;;;;2072735;28;20230;-50
2022/11/18 01:10:12;;;;;;;8.43;7.10;;;;;21.50;98569.00;;;;2077761;28;20217;-49
2022/11/18 01:13:51;;;;;;;7.50;6.50;;;;;21.50;98575.00;;;;2077943;28;20209;-48
2022/11/18 01:14:51;;;;;;;7.30;6.50;;;;;21.50;98573.00;;;;2078749;28;20201;-50
2022/11/18 01:15:52;;;;;;;7.90;6.87;;;;;21.50;98577.00;;;;2078787;28;20443;-49
2022/11/18 01:16:54;;;;;;;6.97;6.30;;;;;21.50;98580.00;;;;2078535;28;20213;-47
2022/11/18 01:17:54;;;;;;;7.68;6.90;;;;;21.50;98582.00;;;;2078570;28;20755;-47
2022/11/18 01:18:55;;;;;;;8.07;6.20;;;;;21.50;98581.00;;;;2077977;28;20218;-47
2022/11/18 01:19:55;;;;;;;8.20;6.27;;;;;21.50;98580.00;;;;2078499;28;20221;-52
2022/11/18 01:20:59;;;;;;;6.83;5.80;;;;;21.50;98586.00;;;;2078985;28;20848;-52
2022/11/18 01:22:01;;;;;;;6.70;5.63;;;;;21.50;98585.00;;;;2077683;28;20233;-50
2022/11/18 01:23:02;;;;;;;7.90;6.10;;;;;21.50;98585.00;;;;2078607;28;20218;-50
2022/11/18 01:24:02;;;;;;;7.20;6.23;;;;;21.50;98581.00;;;;2078076;28;20229;-49
2022/11/18 01:25:03;;;;;;;7.60;5.97;;;;;21.50;98587.00;;;;2075662;28;20264;-48
2022/11/18 01:26:05;;;;;;;7.30;6.10;;;;;21.50;98585.00;;;;2075937;28;20213;-48
2022/11/18 01:27:05;;;;;;;6.97;6.28;;;;;21.40;98586.00;;;;2078129;28;20233;-47
2022/11/18 01:28:05;;;;;;;6.97;6.27;;;;;21.50;98593.00;;;;2078742;28;20237;-48
2022/11/18 01:29:06;;;;;;;7.50;6.70;;;;;21.30;98589.00;;;;2078680;28;20252;-48
2022/11/18 01:30:06;;;;;;;7.10;6.00;;;;;21.50;98591.00;;;;2078238;28;20217;-50
2022/11/18 01:31:09;;;;;;;7.60;6.73;;;;;21.50;98595.00;;;;2078562;28;20713;-49
2022/11/18 01:32:09;;;;;;;6.45;5.85;;;;;21.40;98590.00;;;;2077040;28;20225;-48
2022/11/18 01:33:09;;;;;;;5.97;5.47;;;;;21.40;98588.00;;;;2075792;28;20267;-48
2022/11/18 01:34:10;;;;;;;6.07;5.27;;;;;21.40;98593.00;;;;2079269;28;20210;-49
2022/11/18 01:35:10;;;;;;;6.30;5.27;;;;;21.40;98592.00;;;;2071920;28;20272;-51
2022/11/18 01:36:24;;;;;;;5.03;4.53;;;;;21.40;98597.00;;;;2073968;28;20259;-49
2022/11/18 01:37:24;;;;;;;6.72;6.13;;;;;21.40;98592.00;;;;2079948;28;20227;-51
2022/11/18 01:38:24;;;;;;;5.43;4.80;;;;;21.40;98598.00;;;;2080259;28;20356;-50
2022/11/18 01:39:25;;;;;;;6.10;5.33;;;;;21.40;98591.00;;;;2073907;28;20238;-49
2022/11/18 01:40:25;;;;;;;5.67;5.07;;;;;21.40;98591.00;;;;2071739;28;20224;-49
2022/11/18 01:41:26;;;;;;;6.00;5.07;;;;;21.40;98587.00;;;;2071730;28;20222;-49
2022/11/18 01:42:26;;;;;;;6.27;4.67;;;;;21.40;98596.00;;;;2070681;28;20222;-50
2022/11/18 01:43:50;;;;;;;6.83;5.10;;;;;21.40;98595.00;;;;2071337;28;20276;-50
2022/11/18 01:44:57;;;;;;;5.40;4.90;;;;;21.40;98592.00;;;;2066115;28;20217;-47
2022/11/18 01:45:57;;;;;;;5.68;4.80;;;;;21.40;98594.00;;;;2069150;28;20225;-49
2022/11/18 01:46:58;;;;;;;5.90;4.80;;;;;21.40;98599.00;;;;2079082;28;20209;-50
2022/11/18 01:48:15;;;;;;;5.50;4.47;;;;;21.40;98600.00;;;;2069964;28;20733;-48
2022/11/18 01:49:15;;;;;;;5.13;4.63;;;;;21.40;98597.00;;;;2071680;28;20209;-51
2022/11/18 01:50:15;;;;;;;5.13;4.63;;;;;21.40;98600.00;;;;2077097;23;20230;-49
2022/11/18 01:51:16;;;;;;;5.03;4.50;;;;;21.40;98594.00;;;;2050137;28;20251;-51
2022/11/18 01:52:17;;;;;;;5.05;4.55;;;;;21.40;98602.00;;;;2053097;28;20729;-51
2022/11/18 01:53:21;;;;;;;5.57;4.73;;;;;21.40;98599.00;;;;2047102;28;20212;-50
2022/11/18 01:54:24;;;;;;;5.65;5.00;;;;;21.40;98614.00;;;;2055593;28;20211;-52
2022/11/18 01:55:25;;;;;;;5.70;4.53;;;;;21.40;98608.00;;;;2050893;28;20200;-53
2022/11/18 01:56:36;;;;;;;5.10;4.60;;;;;21.40;98609.00;;;;2054939;28;20270;-52
2022/11/18 01:57:37;;;;;;;4.78;4.30;;;;;21.40;98613.00;;;;2055445;28;20214;-52
2022/11/18 01:58:50;;;;;;;5.07;4.57;;;;;21.40;98603.00;;;;2055423;28;20220;-51
2022/11/18 01:59:51;;;;;;;5.18;4.55;;;;;21.40;98608.00;;;;2055397;28;20220;-52
2022/11/18 02:00:51;;;;;;;6.05;3.80;;;;;21.40;98605.00;;;;2063245;28;20214;-52
2022/11/18 02:01:54;;;;;;;4.40;4.00;;;;;21.40;98618.00;;;;2061621;28;20218;-50
2022/11/18 02:02:54;;;;;;;5.28;4.30;;;;;21.40;98605.00;;;;2060302;28;20211;-52
2022/11/18 02:03:54;;;;;;;4.80;3.90;;;;;21.40;98614.00;;;;2055369;28;20271;-52
2022/11/18 02:04:55;;;;;;;4.93;4.43;;;;;21.40;98610.00;;;;2055123;28;20302;-52
2022/11/18 02:05:55;;;;;;;5.60;4.00;;;;;21.40;98616.00;;;;2063353;28;20207;-52
2022/11/18 02:06:55;;;;;;;4.03;3.63;;;;;21.30;98618.00;;;;2055091;28;20230;-51
2022/11/18 02:07:56;;;;;;;4.30;3.90;;;;;21.40;98587.00;;;;2055096;28;20359;-51
2022/11/18 02:08:56;;;;;;;4.83;4.20;;;;;21.30;98620.00;;;;2043909;28;20969;-51
2022/11/18 02:09:57;;;;;;;4.43;3.60;;;;;21.30;98618.00;;;;2047164;28;20231;-52
2022/11/18 02:10:57;;;;;;;4.00;3.30;;;;;21.40;98615.00;;;;2049014;28;20235;-51
2022/11/18 02:11:57;;;;;;;4.03;3.60;;;;;21.40;98619.00;;;;2054245;28;20535;-53
2022/11/18 02:12:58;;;;;;;4.53;3.77;;;;;21.40;98618.00;;;;2063608;28;20214;-52
2022/11/18 02:14:00;;;;;;;3.93;3.53;;;;;21.40;98614.00;;;;2063140;28;20345;-52
2022/11/18 02:15:00;;;;;;;4.38;3.72;;;;;21.40;98615.00;;;;2063101;28;20214;-52
2022/11/18 02:16:07;;;;;;;4.77;3.70;;;;;21.40;98624.00;;;;2054820;28;20211;-51
2022/11/18 02:17:28;;;;;;;5.80;3.95;;;;;21.40;98615.00;;;;2063129;28;20658;-53
2022/11/18 02:18:49;;;;;;;4.80;4.03;;;;;21.40;98619.00;;;;2062331;28;20246;-53
2022/11/18 02:20:07;;;;;;;4.93;3.67;;;;;21.30;98630.00;;;;2062597;28;20277;-52
2022/11/18 02:21:26;;;;;;;4.82;3.60;;;;;21.30;98624.00;;;;2063636;28;20229;-52
2022/11/18 02:22:54;;;;;;;4.90;4.05;;;;;21.30;98619.00;;;;2053343;28;20285;-50
2022/11/18 02:24:08;;;;;;;4.50;4.10;;;;;21.30;98622.00;;;;2058965;28;20246;-51
2022/11/18 02:25:30;;;;;;;4.07;3.53;;;;;21.40;98621.00;;;;2062412;28;20297;-52
2022/11/18 02:26:54;;;;;;;3.85;3.40;;;;;21.30;98625.00;;;;2061272;28;20288;-52
2022/11/18 02:28:26;;;;;;;4.32;3.42;;;;;21.30;98629.00;;;;2059198;28;20217;-53
2022/11/18 02:29:31;;;;;;;4.15;3.38;;;;;21.30;98628.00;;;;2061875;28;20219;-51
2022/11/18 02:30:33;;;;;;;6.97;3.10;;;;;21.30;98633.00;;;;2062350;28;20257;-51
2022/11/18 02:32:08;;;;;;;7.10;3.28;;;;;21.30;98634.00;;;;2060017;28;20214;-51
2022/11/18 02:33:10;;;;;;;4.43;3.15;;;;;21.30;98628.00;;;;2053811;28;20215;-53
2022/11/18 02:34:24;;;;;;;6.40;3.45;;;;;21.30;98636.00;;;;2048420;28;20250;-52
2022/11/18 02:35:30;;;;;;;4.25;3.13;;;;;21.30;98635.00;;;;2057737;28;20275;-52
2022/11/18 02:36:31;;;;;;;3.95;3.28;;;;;21.30;98639.00;;;;2062657;28;20601;-52
2022/11/18 02:37:43;;;;;;;3.10;2.80;;;;;21.30;98630.00;;;;2062385;28;20225;-52
2022/11/18 02:38:45;;;;;;;5.55;3.00;;;;;21.30;98637.00;;;;2062447;28;20528;-51
2022/11/18 02:39:53;;;;;;;4.20;2.80;;;;;21.30;98636.00;;;;2054125;28;20266;-50
2022/11/18 02:40:55;;;;;;;3.83;2.83;;;;;21.30;98634.00;;;;2056610;28;20223;-49
2022/11/18 02:41:56;;;;;;;5.30;2.80;;;;;21.30;98642.00;;;;2061693;28;20218;-52
2022/11/18 02:43:01;;;;;;;3.90;3.00;;;;;21.30;98638.00;;;;2062547;28;20719;-50
2022/11/18 02:44:06;;;;;;;4.15;2.78;;;;;21.30;98638.00;;;;2046542;28;20235;-53
2022/11/18 02:45:12;;;;;;;3.80;3.33;;;;;21.30;98633.00;;;;2045494;28;20235;-49
2022/11/18 02:46:15;;;;;;;3.13;2.80;;;;;21.30;98639.00;;;;2047671;28;20218;-52
2022/11/18 02:47:16;;;;;;;2.67;2.47;;;;;21.30;98642.00;;;;2039339;29;20217;-53
2022/11/18 02:48:16;;;;;;;3.70;2.87;;;;;21.30;98635.00;;;;2039039;28;20675;-50
2022/11/18 02:49:22;;;;;;;4.73;3.10;;;;;21.30;98633.00;;;;2039145;28;20809;-52
2022/11/18 02:50:23;;;;;;;3.45;2.47;;;;;21.30;98638.00;;;;2044346;28;20216;-55
2022/11/18 02:51:25;;;;;;;3.22;2.40;;;;;21.30;98645.00;;;;2054856;28;20251;-53
2022/11/18 02:52:25;;;;;;;3.00;2.50;;;;;21.30;98642.00;;;;2053821;28;20246;-52
2022/11/18 02:53:26;;;;;;;2.97;2.43;;;;;21.30;98641.00;;;;2062908;28;20211;-50
2022/11/18 02:54:27;;;;;;;4.10;2.73;;;;;21.30;98644.00;;;;2062951;28;20225;-51
2022/11/18 02:55:28;;;;;;;6.87;2.80;;;;;21.20;98642.00;;;;2061064;28;20245;-51
2022/11/18 02:56:28;;;;;;;2.95;2.17;;;;;21.30;98647.00;;;;2054717;28;20230;-49
2022/11/18 02:57:29;;;;;;;5.70;3.00;;;;;21.30;98642.00;;;;2055158;28;20746;-51
2022/11/18 02:58:29;;;;;;;2.70;2.20;;;;;21.30;98640.00;;;;2054782;28;20572;-52
2022/11/18 02:59:30;;;;;;;3.37;3.00;;;;;21.20;98642.00;;;;2054714;28;20578;-52
2022/11/18 03:00:30;;;;;;;5.97;2.30;;;;;21.30;98656.00;;;;2062658;28;20229;-53
2022/11/18 03:01:32;;;;;;;2.60;2.20;;;;;21.30;98648.00;;;;2062299;28;20691;-51
2022/11/18 03:02:43;;;;;;;3.03;2.42;;;;;21.30;98651.00;;;;2061480;28;20458;-53
2022/11/18 03:03:43;;;;;;;3.97;2.45;;;;;21.30;98646.00;;;;2062866;28;20214;-51
2022/11/18 03:04:47;;;;;;;3.27;2.07;;;;;21.20;98655.00;;;;2063384;28;20211;-51
2022/11/18 03:05:51;;;;;;;3.58;2.60;;;;;21.20;98652.00;;;;2063666;28;20222;-51
2022/11/18 03:07:09;;;;;;;2.33;2.10;;;;;21.20;98656.00;;;;2062617;28;20225;-51
2022/11/18 03:08:12;;;;;;;2.72;2.30;;;;;21.20;98651.00;;;;2061664;28;20219;-52
2022/11/18 03:09:18;;;;;;;3.03;2.20;;;;;21.20;98657.00;;;;2056011;28;20239;-53
2022/11/18 03:10:19;;;;;;;3.67;2.42;;;;;21.20;98650.00;;;;2062862;28;20670;-52
2022/11/18 03:11:24;;;;;;;2.87;2.07;;;;;21.20;98660.00;;;;2062682;28;20318;-52
2022/11/18 03:12:42;;;;;;;3.03;2.28;;;;;21.20;98658.00;;;;2061552;28;20219;-52
2022/11/18 03:14:07;;;;;;;2.15;1.90;;;;;21.20;98662.00;;;;2056694;28;20261;-52
2022/11/18 03:15:15;;;;;;;3.10;2.15;;;;;21.20;98664.00;;;;2058335;28;20210;-51
2022/11/18 03:16:30;;;;;;;3.20;2.30;;;;;21.20;98660.00;;;;2057056;28;20222;-53
2022/11/18 03:17:33;;;;;;;2.50;2.20;;;;;21.20;98666.00;;;;2055071;28;20272;-51
2022/11/18 03:19:17;;;;;;;2.63;1.95;;;;;21.20;98665.00;;;;2062457;28;20677;-51
2022/11/18 03:20:22;;;;;;;3.40;1.83;;;;;21.20;98637.00;;;;2024247;29;20225;-52
2022/11/18 03:21:28;;;;;;;3.45;2.22;;;;;21.20;98671.00;;;;2030553;29;20229;-52
2022/11/18 03:22:38;;;;;;;2.45;2.05;;;;;21.20;98666.00;;;;2041330;28;20706;-51
2022/11/18 03:23:41;;;;;;;2.17;1.60;;;;;21.20;98667.00;;;;2055699;28;20446;-51
2022/11/18 03:24:45;;;;;;;4.13;2.10;;;;;21.20;98675.00;;;;2060521;28;20215;-52
2022/11/18 03:25:52;;;;;;;2.10;1.90;;;;;21.20;98674.00;;;;2047280;28;20242;-51
2022/11/18 03:26:55;;;;;;;3.15;2.38;;;;;21.20;98670.00;;;;2057972;28;20805;-52
2022/11/18 03:28:18;;;;;;;2.88;2.20;;;;;21.20;98670.00;;;;2046363;28;20240;-51
2022/11/18 03:29:22;;;;;;;2.72;2.13;;;;;21.20;98644.00;;;;2049621;28;20220;-53
2022/11/18 03:30:22;;;;;;;2.00;1.80;;;;;21.20;98675.00;;;;2054181;28;20295;-51
2022/11/18 03:31:37;;;;;;;2.67;2.33;;;;;21.20;98678.00;;;;2054578;28;20223;-52
2022/11/18 03:32:40;;;;;;;3.40;2.40;;;;;21.20;98679.00;;;;2057537;28;20222;-51
2022/11/18 03:33:46;;;;;;;3.00;2.20;;;;;21.20;98680.00;;;;2054594;28;20216;-53
2022/11/18 03:34:48;;;;;;;2.83;2.03;;;;;21.20;98680.00;;;;2062239;28;20207;-50
2022/11/18 03:35:49;;;;;;;2.92;2.25;;;;;21.20;98686.00;;;;2054590;28;20207;-51
2022/11/18 03:36:50;;;;;;;2.77;1.90;;;;;21.20;98685.00;;;;2062540;28;20699;-51
2022/11/18 03:37:53;;;;;;;2.97;2.08;;;;;21.20;98686.00;;;;2056237;28;20219;-52
2022/11/18 03:38:54;;;;;;;3.22;2.50;;;;;21.20;98686.00;;;;2054344;28;20239;-51
2022/11/18 03:39:58;;;;;;;2.70;2.05;;;;;21.20;98681.00;;;;2054175;28;20223;-53
2022/11/18 03:41:00;;;;;;;2.63;2.40;;;;;21.20;98686.00;;;;2046640;28;20223;-51
2022/11/18 03:42:20;;;;;;;2.55;2.10;;;;;21.20;98691.00;;;;2038287;28;20221;-51
2022/11/18 03:43:22;;;;;;;2.90;2.10;;;;;21.20;98682.00;;;;2054011;28;20767;-51
2022/11/18 03:44:25;;;;;;;2.80;2.22;;;;;21.20;98679.00;;;;2058680;28;20248;-52
2022/11/18 03:45:30;;;;;;;2.72;2.10;;;;;21.20;98699.00;;;;2061684;28;20238;-52
2022/11/18 03:46:32;;;;;;;2.47;1.77;;;;;21.20;98693.00;;;;2050557;28;20216;-52
2022/11/18 03:47:39;;;;;;;2.25;1.80;;;;;21.20;98702.00;;;;2053470;28;20215;-53
2022/11/18 03:48:43;;;;;;;3.03;2.08;;;;;21.20;98703.00;;;;2061445;28;20305;-50
2022/11/18 03:50:05;;;;;;;2.60;1.90;;;;;21.20;98695.00;;;;2053075;28;20246;-53
2022/11/18 03:51:07;;;;;;;2.03;1.70;;;;;21.10;98695.00;;;;2051113;28;20561;-53
2022/11/18 03:52:31;;;;;;;2.47;1.90;;;;;21.10;98702.00;;;;2060253;28;20235;-52
2022/11/18 03:53:33;;;;;;;1.90;1.70;;;;;21.10;98698.00;;;;2056050;28;20659;-52
2022/11/18 03:54:33;;;;;;;3.70;1.63;;;;;21.10;98701.00;;;;2061013;28;20702;-54
2022/11/18 03:55:39;;;;;;;2.30;2.10;;;;;21.10;98707.00;;;;2053510;28;20215;-50
2022/11/18 03:56:42;;;;;;;2.03;1.70;;;;;21.20;98702.00;;;;2042193;28;20744;-51
2022/11/18 03:57:48;;;;;;;2.10;1.90;;;;;21.10;98706.00;;;;2061192;28;20298;-50
2022/11/18 03:59:06;;;;;;;2.13;1.65;;;;;21.10;98704.00;;;;2055045;28;20227;-53
2022/11/18 04:00:10;;;;;;;2.30;1.70;;;;;21.10;98708.00;;;;2055452;28;20632;-50
2022/11/18 04:01:20;;;;;;;2.05;1.80;;;;;21.10;98706.00;;;;2054396;28;20719;-53
2022/11/18 04:02:22;;;;;;;2.97;1.80;;;;;21.10;98709.00;;;;2061476;28;20211;-51
2022/11/18 04:03:24;;;;;;;4.10;1.98;;;;;21.10;98705.00;;;;2052807;28;20211;-52
2022/11/18 04:04:25;;;;;;;2.70;1.90;;;;;21.10;98710.00;;;;2038929;28;20212;-51
2022/11/18 04:05:25;;;;;;;2.40;1.83;;;;;21.10;98706.00;;;;2054091;28;21097;-51
2022/11/18 04:06:34;;;;;;;2.87;2.07;;;;;21.10;98707.00;;;;2058664;28;20211;-49
2022/11/18 04:07:52;;;;;;;2.10;1.50;;;;;21.10;98709.00;;;;2062238;28;20222;-52
2022/11/18 04:08:54;;;;;;;3.88;2.20;;;;;21.10;98715.00;;;;2054382;28;20298;-52
2022/11/18 04:10:09;;;;;;;1.73;1.33;;;;;21.10;98712.00;;;;2054250;28;20305;-52
2022/11/18 04:12:58;;;;;;;2.92;1.75;;;;;21.10;98716.00;;;;2049638;28;20655;-53
2022/11/18 04:13:58;;;;;;;2.03;1.65;;;;;21.10;98718.00;;;;2054824;28;20227;-52
2022/11/18 04:14:59;;;;;;;3.50;1.73;;;;;21.10;98732.00;;;;2058435;28;20221;-52
2022/11/18 04:15:59;;;;;;;2.20;1.57;;;;;21.10;98725.00;;;;2062467;28;20569;-52
2022/11/18 04:16:59;;;;;;;6.10;1.90;;;;;21.10;98725.00;;;;2061915;28;20624;-52
2022/11/18 04:18:00;;;;;;;2.33;1.90;;;;;21.10;98724.00;;;;2061250;28;20258;-52
2022/11/18 04:19:00;;;;;;;1.87;1.60;;;;;21.10;98729.00;;;;2062187;28;20230;-52
2022/11/18 04:20:00;;;;;;;3.03;2.07;;;;;21.10;98731.00;;;;2062952;28;20235;-53
2022/11/18 04:21:01;;;;;;;2.30;1.60;;;;;21.10;98734.00;;;;2062812;28;20241;-52
2022/11/18 04:22:01;;;;;;;2.70;1.70;;;;;21.10;98727.00;;;;2061692;28;20240;-52
2022/11/18 04:23:02;;;;;;;2.33;1.57;;;;;21.10;98729.00;;;;2062952;28;20226;-52
2022/11/18 04:24:03;;;;;;;1.75;1.58;;;;;21.10;98737.00;;;;2062791;28;20226;-52
2022/11/18 04:25:03;;;;;;;2.30;1.50;;;;;21.10;98735.00;;;;2062741;28;20222;-52
2022/11/18 04:26:04;;;;;;;2.40;1.50;;;;;21.10;98739.00;;;;2062898;28;20218;-50
2022/11/18 04:27:04;;;;;;;1.90;1.43;;;;;21.10;98734.00;;;;2062494;28;20226;-52
2022/11/18 04:28:05;;;;;;;2.40;1.70;;;;;21.10;98733.00;;;;2061781;28;20214;-52
2022/11/18 04:29:05;;;;;;;2.70;1.47;;;;;21.10;98743.00;;;;2060428;28;20751;-52
2022/11/18 04:30:06;;;;;;;2.60;1.30;;;;;21.10;98733.00;;;;2058756;28;20247;-51
2022/11/18 04:31:06;;;;;;;1.43;1.27;;;;;21.10;98744.00;;;;2054209;28;20259;-50
2022/11/18 04:32:06;;;;;;;1.80;1.43;;;;;21.10;98741.00;;;;2053785;28;20611;-51
2022/11/18 04:33:07;;;;;;;2.07;1.60;;;;;21.10;98736.00;;;;2053944;28;20968;-51
2022/11/18 04:34:07;;;;;;;1.43;1.00;;;;;21.10;98745.00;;;;2061112;28;20214;-51
2022/11/18 04:35:08;;;;;;;2.03;1.50;;;;;21.10;98744.00;;;;2062689;28;20305;-49
2022/11/18 04:36:08;;;;;;;1.70;1.40;;;;;21.10;98746.00;;;;2061886;28;20223;-51
2022/11/18 04:37:08;;;;;;;2.23;1.30;;;;;21.10;98747.00;;;;2054668;28;20227;-51
2022/11/18 04:38:09;;;;;;;3.73;1.97;;;;;21.10;98749.00;;;;2053946;28;20303;-57
2022/11/18 04:39:09;;;;;;;1.77;1.43;;;;;21.10;98740.00;;;;2054955;28;20220;-56
2022/11/18 04:40:10;;;;;;;1.90;1.13;;;;;21.10;98746.00;;;;2054836;28;20223;-54
2022/11/18 04:41:10;;;;;;;1.77;1.33;;;;;21.10;98741.00;;;;2054739;28;20215;-52
2022/11/18 04:42:11;;;;;;;2.13;1.37;;;;;21.10;98743.00;;;;2059811;28;20303;-51
2022/11/18 04:43:11;;;;;;;1.70;1.10;;;;;21.10;98749.00;;;;2062490;28;20227;-51
2022/11/18 04:44:11;;;;;;;2.83;1.60;;;;;21.10;98742.00;;;;2062291;28;20238;-52
2022/11/18 04:45:12;;;;;;;2.13;1.43;;;;;21.10;98747.00;;;;2062588;28;20207;-52
2022/11/18 04:46:12;;;;;;;4.10;1.27;;;;;21.10;98746.00;;;;2062559;28;20436;-52
2022/11/18 04:47:12;;;;;;;2.50;1.50;;;;;21.00;98743.00;;;;2062785;28;20221;-52
2022/11/18 04:48:13;;;;;;;2.50;2.03;;;;;21.10;98748.00;;;;2062577;28;20234;-51
2022/11/18 04:49:14;;;;;;;1.60;1.40;;;;;21.10;98746.00;;;;2062596;28;20214;-51
2022/11/18 04:50:14;;;;;;;1.70;1.23;;;;;21.00;98754.00;;;;2062303;28;20298;-52
2022/11/18 04:51:14;;;;;;;1.90;1.50;;;;;21.10;98755.00;;;;2062624;28;20372;-52
2022/11/18 04:52:15;;;;;;;2.77;1.43;;;;;21.10;98756.00;;;;2061483;28;20214;-51
2022/11/18 04:53:15;;;;;;;2.33;1.40;;;;;21.10;98758.00;;;;2062839;28;20251;-50
2022/11/18 04:54:15;;;;;;;1.77;1.50;;;;;21.00;98759.00;;;;2062589;28;20691;-50
2022/11/18 04:55:16;;;;;;;2.30;1.70;;;;;21.00;98756.00;;;;2059204;28;20218;-52
2022/11/18 04:56:16;;;;;;;3.47;2.03;;;;;21.00;98756.00;;;;2053874;28;20239;-52
2022/11/18 04:57:16;;;;;;;2.50;2.00;;;;;21.00;98760.00;;;;2054576;28;20230;-51
2022/11/18 04:58:17;;;;;;;1.73;1.43;;;;;21.00;98759.00;;;;2054448;28;20241;-50
2022/11/18 04:59:19;;;;;;;2.40;1.67;;;;;21.00;98762.00;;;;2054336;28;20304;-52
2022/11/18 05:00:21;;;;;;;2.83;1.73;;;;;21.00;98758.00;;;;2053779;28;20306;-52
2022/11/18 05:01:21;;;;;;;2.35;1.40;;;;;21.00;98759.00;;;;2058325;28;20207;-52
2022/11/18 05:02:21;;;;;;;2.70;1.60;;;;;21.00;98758.00;;;;2061804;28;20574;-52
2022/11/18 05:03:22;;;;;;;2.00;1.43;;;;;21.00;98760.00;;;;2062659;28;20575;-50
2022/11/18 05:04:24;;;;;;;2.07;1.67;;;;;21.00;98759.00;;;;2062384;28;20695;-52
2022/11/18 05:05:25;;;;;;;2.25;1.40;;;;;21.00;98762.00;;;;2062523;28;20209;-52
2022/11/18 05:06:25;;;;;;;2.00;1.80;;;;;21.00;98765.00;;;;2062598;28;20882;-52
2022/11/18 05:07:25;;;;;;;2.17;1.77;;;;;21.00;98765.00;;;;2062521;28;20800;-52
2022/11/18 05:08:26;;;;;;;1.63;1.50;;;;;21.00;98770.00;;;;2063845;28;20211;-51
2022/11/18 05:09:26;;;;;;;1.70;1.60;;;;;21.00;98768.00;;;;2064138;28;20377;-52
2022/11/18 05:10:26;;;;;;;1.93;1.60;;;;;21.00;98762.00;;;;2064098;28;20207;-51
2022/11/18 05:12:48;;;;;;;1.75;1.40;;;;;21.00;98765.00;;;;2063205;28;20313;-51
2022/11/18 05:13:49;;;;;;;2.47;1.95;;;;;21.00;98768.00;;;;2064035;28;20293;-51
2022/11/18 05:14:49;;;;;;;2.17;1.40;;;;;21.00;98774.00;;;;2064253;28;20211;-51
2022/11/18 05:15:49;;;;;;;2.50;1.60;;;;;21.00;98770.00;;;;2058277;28;20222;-52
2022/11/18 05:16:50;;;;;;;1.70;1.23;;;;;21.00;98768.00;;;;2064287;28;20230;-52
2022/11/18 05:17:50;;;;;;;1.40;1.27;;;;;21.00;98783.00;;;;2064354;28;20214;-52
2022/11/18 05:18:50;;;;;;;2.00;1.50;;;;;21.00;98785.00;;;;2064149;28;20219;-51
2022/11/18 05:19:51;;;;;;;1.97;1.73;;;;;21.00;98781.00;;;;2064284;28;20563;-50
2022/11/18 05:20:51;;;;;;;1.50;1.20;;;;;21.00;98783.00;;;;2062146;28;20850;-52
2022/11/18 05:21:52;;;;;;;1.80;1.40;;;;;21.00;98782.00;;;;2055317;28;20623;-52
2022/11/18 05:22:52;;;;;;;1.57;1.20;;;;;21.00;98788.00;;;;2056157;28;20541;-51
2022/11/18 05:23:52;;;;;;;1.37;1.27;;;;;21.00;98788.00;;;;2056261;28;20751;-52
2022/11/18 05:24:53;;;;;;;1.70;1.30;;;;;21.00;98786.00;;;;2061493;28;20664;-52
2022/11/18 05:25:53;;;;;;;2.30;1.33;;;;;21.00;98794.00;;;;2064018;28;20782;-52